Aviation Digital Data Service (ADDS)

Output produced by METARs form (0909 UTC 13 August 2022)
found at http://www.aviationweather.gov/metar/data/
 
Forecast for: EDDK (KOELN/BONN , DE)
Text: TAF EDDK 130500Z 1306/1412 11006KT CAVOK
Forecast period: 0600 UTC 13 August 2022 to 1200 UTC 14 August 2022
Forecast type: FROM: standard forecast or significant change
Winds: from the ESE (110 degrees) at 7 MPH (6 knots; 3.1 m/s)
Visibility: 6 or more miles (10+ km)
Ceiling: unknown
Clouds: missing
Weather: NSW  (no significant weather)